sensor_id;sensor_type;location;lat;lon;timestamp;temperature;humidity
63802;DHT22;49949;43.060;25.624;2022-12-07T00:00:53;5.40;99.90
63802;DHT22;49949;43.060;25.624;2022-12-07T00:03:19;5.30;99.90
63802;DHT22;49949;43.060;25.624;2022-12-07T00:05:44;5.30;99.90
63802;DHT22;49949;43.060;25.624;2022-12-07T00:08:10;5.40;99.90
63802;DHT22;49949;43.060;25.624;2022-12-07T00:10:36;5.40;99.90
63802;DHT22;49949;43.060;25.624;2022-12-07T00:13:02;5.40;99.90
63802;DHT22;49949;43.060;25.624;2022-12-07T00:15:27;5.40;99.90
63802;DHT22;49949;43.060;25.624;2022-12-07T00:17:53;5.40;99.90
63802;DHT22;49949;43.060;25.624;2022-12-07T00:20:19;5.40;99.90
63802;DHT22;49949;43.060;25.624;2022-12-07T00:22:44;5.40;99.90
63802;DHT22;49949;43.060;25.624;2022-12-07T00:25:10;5.50;99.90
63802;DHT22;49949;43.060;25.624;2022-12-07T00:27:35;5.50;99.90
63802;DHT22;49949;43.060;25.624;2022-12-07T00:30:01;5.50;99.90
63802;DHT22;49949;43.060;25.624;2022-12-07T00:32:27;5.60;99.90
63802;DHT22;49949;43.060;25.624;2022-12-07T00:34:53;5.60;99.90
63802;DHT22;49949;43.060;25.624;2022-12-07T00:37:19;5.60;99.90
63802;DHT22;49949;43.060;25.624;2022-12-07T00:39:45;5.60;99.90
63802;DHT22;49949;43.060;25.624;2022-12-07T00:42:11;5.60;99.90
63802;DHT22;49949;43.060;25.624;2022-12-07T00:44:37;5.70;99.90
63802;DHT22;49949;43.060;25.624;2022-12-07T00:47:03;5.70;99.90
63802;DHT22;49949;43.060;25.624;2022-12-07T00:49:28;5.70;99.90
63802;DHT22;49949;43.060;25.624;2022-12-07T00:51:54;5.70;99.90
63802;DHT22;49949;43.060;25.624;2022-12-07T00:54:20;5.70;99.90
63802;DHT22;49949;43.060;25.624;2022-12-07T00:56:45;5.70;99.90
63802;DHT22;49949;43.060;25.624;2022-12-07T00:59:13;5.70;99.90
63802;DHT22;49949;43.060;25.624;2022-12-07T01:01:42;5.70;99.90
63802;DHT22;49949;43.060;25.624;2022-12-07T01:04:07;5.70;99.90
63802;DHT22;49949;43.060;25.624;2022-12-07T01:06:34;5.70;99.90
63802;DHT22;49949;43.060;25.624;2022-12-07T01:09:00;5.80;99.90
63802;DHT22;49949;43.060;25.624;2022-12-07T01:11:29;5.80;99.90
63802;DHT22;49949;43.060;25.624;2022-12-07T01:13:57;5.70;99.90
63802;DHT22;49949;43.060;25.624;2022-12-07T01:16:25;5.80;99.90
63802;DHT22;49949;43.060;25.624;2022-12-07T01:18:52;5.80;99.90
63802;DHT22;49949;43.060;25.624;2022-12-07T01:21:24;5.80;99.90
63802;DHT22;49949;43.060;25.624;2022-12-07T01:23:50;5.80;99.90
63802;DHT22;49949;43.060;25.624;2022-12-07T01:26:19;5.80;99.90
63802;DHT22;49949;43.060;25.624;2022-12-07T01:28:45;5.80;99.90
63802;DHT22;49949;43.060;25.624;2022-12-07T01:31:17;5.80;99.90
63802;DHT22;49949;43.060;25.624;2022-12-07T01:33:48;5.70;99.90
63802;DHT22;49949;43.060;25.624;2022-12-07T01:36:17;5.70;99.90
63802;DHT22;49949;43.060;25.624;2022-12-07T01:38:44;5.70;99.90
63802;DHT22;49949;43.060;25.624;2022-12-07T01:41:11;5.70;99.90
63802;DHT22;49949;43.060;25.624;2022-12-07T01:44:06;5.70;99.90
63802;DHT22;49949;43.060;25.624;2022-12-07T01:46:22;5.60;99.90
63802;DHT22;49949;43.060;25.624;2022-12-07T01:48:48;5.60;99.90
63802;DHT22;49949;43.060;25.624;2022-12-07T01:51:15;5.70;99.90
63802;DHT22;49949;43.060;25.624;2022-12-07T01:53:43;5.70;99.90
63802;DHT22;49949;43.060;25.624;2022-12-07T01:56:16;5.70;99.90
63802;DHT22;49949;43.060;25.624;2022-12-07T01:58:43;5.70;99.90
63802;DHT22;49949;43.060;25.624;2022-12-07T02:01:09;5.60;99.90
63802;DHT22;49949;43.060;25.624;2022-12-07T02:03:40;5.60;99.90
63802;DHT22;49949;43.060;25.624;2022-12-07T02:06:07;5.50;99.90
63802;DHT22;49949;43.060;25.624;2022-12-07T02:08:33;5.50;99.90
63802;DHT22;49949;43.060;25.624;2022-12-07T02:11:01;5.60;99.90
63802;DHT22;49949;43.060;25.624;2022-12-07T02:13:32;5.50;99.90
63802;DHT22;49949;43.060;25.624;2022-12-07T02:16:04;5.50;99.90
63802;DHT22;49949;43.060;25.624;2022-12-07T02:21:33;5.50;99.90
63802;DHT22;49949;43.060;25.624;2022-12-07T02:35:26;5.50;99.90
63802;DHT22;49949;43.060;25.624;2022-12-07T02:40:40;5.50;99.90
63802;DHT22;49949;43.060;25.624;2022-12-07T02:43:38;5.60;99.90
63802;DHT22;49949;43.060;25.624;2022-12-07T02:46:09;5.60;99.90
63802;DHT22;49949;43.060;25.624;2022-12-07T02:48:38;5.60;99.90
63802;DHT22;49949;43.060;25.624;2022-12-07T02:51:04;5.60;99.90
63802;DHT22;49949;43.060;25.624;2022-12-07T02:53:35;5.50;99.90
63802;DHT22;49949;43.060;25.624;2022-12-07T03:04:45;5.50;99.90
63802;DHT22;49949;43.060;25.624;2022-12-07T03:15:46;5.50;99.90
63802;DHT22;49949;43.060;25.624;2022-12-07T03:18:18;5.40;99.90
63802;DHT22;49949;43.060;25.624;2022-12-07T03:20:46;5.40;99.90
63802;DHT22;49949;43.060;25.624;2022-12-07T03:23:16;5.40;99.90
63802;DHT22;49949;43.060;25.624;2022-12-07T03:25:47;5.30;99.90
63802;DHT22;49949;43.060;25.624;2022-12-07T03:28:17;5.20;99.90
63802;DHT22;49949;43.060;25.624;2022-12-07T03:30:55;5.20;99.90
63802;DHT22;49949;43.060;25.624;2022-12-07T03:33:29;5.20;99.90
63802;DHT22;49949;43.060;25.624;2022-12-07T03:36:08;5.20;99.90
63802;DHT22;49949;43.060;25.624;2022-12-07T03:38:37;5.20;99.90
63802;DHT22;49949;43.060;25.624;2022-12-07T03:41:08;5.20;99.90
63802;DHT22;49949;43.060;25.624;2022-12-07T03:43:36;5.20;99.90
63802;DHT22;49949;43.060;25.624;2022-12-07T03:51:54;5.30;99.90
63802;DHT22;49949;43.060;25.624;2022-12-07T03:54:34;5.30;99.90
63802;DHT22;49949;43.060;25.624;2022-12-07T03:57:03;5.20;99.90
63802;DHT22;49949;43.060;25.624;2022-12-07T03:59:29;5.20;99.90
63802;DHT22;49949;43.060;25.624;2022-12-07T04:01:57;5.20;99.90
63802;DHT22;49949;43.060;25.624;2022-12-07T04:04:27;5.20;99.90
63802;DHT22;49949;43.060;25.624;2022-12-07T04:06:53;5.10;99.90
63802;DHT22;49949;43.060;25.624;2022-12-07T04:09:19;5.10;99.90
63802;DHT22;49949;43.060;25.624;2022-12-07T04:11:45;5.00;99.90
63802;DHT22;49949;43.060;25.624;2022-12-07T04:14:11;5.00;99.90
63802;DHT22;49949;43.060;25.624;2022-12-07T04:16:54;5.00;99.90
63802;DHT22;49949;43.060;25.624;2022-12-07T04:19:26;5.10;99.90
63802;DHT22;49949;43.060;25.624;2022-12-07T04:21:53;5.00;99.90
63802;DHT22;49949;43.060;25.624;2022-12-07T04:24:19;5.10;99.90
63802;DHT22;49949;43.060;25.624;2022-12-07T04:26:45;5.10;99.90
63802;DHT22;49949;43.060;25.624;2022-12-07T04:29:11;5.10;99.90
63802;DHT22;49949;43.060;25.624;2022-12-07T04:31:37;5.10;99.90
63802;DHT22;49949;43.060;25.624;2022-12-07T04:34:04;5.10;99.90
63802;DHT22;49949;43.060;25.624;2022-12-07T04:36:30;5.10;99.90
63802;DHT22;49949;43.060;25.624;2022-12-07T04:38:56;5.10;99.90
63802;DHT22;49949;43.060;25.624;2022-12-07T04:41:23;5.10;99.90
63802;DHT22;49949;43.060;25.624;2022-12-07T04:44:03;5.10;99.90
63802;DHT22;49949;43.060;25.624;2022-12-07T04:46:31;5.20;99.90
63802;DHT22;49949;43.060;25.624;2022-12-07T04:48:57;5.20;99.90
63802;DHT22;49949;43.060;25.624;2022-12-07T04:51:28;5.20;99.90
63802;DHT22;49949;43.060;25.624;2022-12-07T04:53:55;5.20;99.90
63802;DHT22;49949;43.060;25.624;2022-12-07T04:56:21;5.20;99.90
63802;DHT22;49949;43.060;25.624;2022-12-07T04:58:48;5.20;99.90
63802;DHT22;49949;43.060;25.624;2022-12-07T05:01:15;5.20;99.90
63802;DHT22;49949;43.060;25.624;2022-12-07T05:03:42;5.20;99.90
63802;DHT22;49949;43.060;25.624;2022-12-07T05:06:08;5.20;99.90
63802;DHT22;49949;43.060;25.624;2022-12-07T05:08:34;5.20;99.90
63802;DHT22;49949;43.060;25.624;2022-12-07T05:11:01;5.10;99.90
63802;DHT22;49949;43.060;25.624;2022-12-07T05:13:27;5.10;99.90
63802;DHT22;49949;43.060;25.624;2022-12-07T05:15:53;5.10;99.90
63802;DHT22;49949;43.060;25.624;2022-12-07T05:18:19;5.10;99.90
63802;DHT22;49949;43.060;25.624;2022-12-07T05:20:45;5.10;99.90
63802;DHT22;49949;43.060;25.624;2022-12-07T05:23:11;5.10;99.90
63802;DHT22;49949;43.060;25.624;2022-12-07T05:25:37;5.10;99.90
63802;DHT22;49949;43.060;25.624;2022-12-07T05:28:03;5.10;99.90
63802;DHT22;49949;43.060;25.624;2022-12-07T05:30:29;5.10;99.90
63802;DHT22;49949;43.060;25.624;2022-12-07T05:32:55;5.10;99.90
63802;DHT22;49949;43.060;25.624;2022-12-07T05:35:21;5.00;99.90
63802;DHT22;49949;43.060;25.624;2022-12-07T05:37:47;5.00;99.90
63802;DHT22;49949;43.060;25.624;2022-12-07T05:40:14;5.00;99.90
63802;DHT22;49949;43.060;25.624;2022-12-07T05:42:40;5.00;99.90
63802;DHT22;49949;43.060;25.624;2022-12-07T05:45:07;5.00;99.90
63802;DHT22;49949;43.060;25.624;2022-12-07T05:47:33;4.90;99.90
63802;DHT22;49949;43.060;25.624;2022-12-07T05:49:58;4.90;99.90
63802;DHT22;49949;43.060;25.624;2022-12-07T05:52:24;4.90;99.90
63802;DHT22;49949;43.060;25.624;2022-12-07T05:54:50;4.90;99.90
63802;DHT22;49949;43.060;25.624;2022-12-07T05:57:16;4.80;99.90
63802;DHT22;49949;43.060;25.624;2022-12-07T05:59:41;4.80;99.90
63802;DHT22;49949;43.060;25.624;2022-12-07T06:02:13;4.80;99.90
63802;DHT22;49949;43.060;25.624;2022-12-07T06:04:43;4.70;99.90
63802;DHT22;49949;43.060;25.624;2022-12-07T06:07:10;4.70;99.90
63802;DHT22;49949;43.060;25.624;2022-12-07T06:09:36;4.70;99.90
63802;DHT22;49949;43.060;25.624;2022-12-07T06:12:02;4.70;99.90
63802;DHT22;49949;43.060;25.624;2022-12-07T06:14:46;4.60;99.90
63802;DHT22;49949;43.060;25.624;2022-12-07T06:17:13;4.60;99.90
63802;DHT22;49949;43.060;25.624;2022-12-07T06:19:39;4.70;99.90
63802;DHT22;49949;43.060;25.624;2022-12-07T06:22:05;4.70;99.90
63802;DHT22;49949;43.060;25.624;2022-12-07T06:24:32;4.70;99.90
63802;DHT22;49949;43.060;25.624;2022-12-07T06:26:58;4.80;99.90
63802;DHT22;49949;43.060;25.624;2022-12-07T06:29:23;4.80;99.90
63802;DHT22;49949;43.060;25.624;2022-12-07T06:31:49;4.80;99.90
63802;DHT22;49949;43.060;25.624;2022-12-07T06:34:19;4.90;99.90
63802;DHT22;49949;43.060;25.624;2022-12-07T06:36:46;5.00;99.90
63802;DHT22;49949;43.060;25.624;2022-12-07T06:39:19;5.10;99.90
63802;DHT22;49949;43.060;25.624;2022-12-07T06:41:46;5.20;99.90
63802;DHT22;49949;43.060;25.624;2022-12-07T06:44:12;5.30;99.90
63802;DHT22;49949;43.060;25.624;2022-12-07T06:46:37;5.40;99.90
63802;DHT22;49949;43.060;25.624;2022-12-07T06:49:04;5.50;99.90
63802;DHT22;49949;43.060;25.624;2022-12-07T06:51:31;5.60;99.90
63802;DHT22;49949;43.060;25.624;2022-12-07T06:53:56;5.70;99.90
63802;DHT22;49949;43.060;25.624;2022-12-07T06:56:22;5.70;99.90
63802;DHT22;49949;43.060;25.624;2022-12-07T06:58:48;5.80;99.90
63802;DHT22;49949;43.060;25.624;2022-12-07T07:01:16;5.70;99.90
63802;DHT22;49949;43.060;25.624;2022-12-07T07:03:44;5.70;99.90
63802;DHT22;49949;43.060;25.624;2022-12-07T07:06:10;5.80;99.90
63802;DHT22;49949;43.060;25.624;2022-12-07T07:08:37;5.80;99.90
63802;DHT22;49949;43.060;25.624;2022-12-07T07:11:03;5.80;99.90
63802;DHT22;49949;43.060;25.624;2022-12-07T07:13:29;5.90;99.90
63802;DHT22;49949;43.060;25.624;2022-12-07T07:15:55;5.90;99.90
63802;DHT22;49949;43.060;25.624;2022-12-07T07:18:21;5.90;99.90
63802;DHT22;49949;43.060;25.624;2022-12-07T07:20:47;5.90;99.90
63802;DHT22;49949;43.060;25.624;2022-12-07T07:23:12;6.00;99.90
63802;DHT22;49949;43.060;25.624;2022-12-07T07:25:38;6.00;99.90
63802;DHT22;49949;43.060;25.624;2022-12-07T07:28:04;6.10;99.90
63802;DHT22;49949;43.060;25.624;2022-12-07T07:30:30;6.20;99.90
63802;DHT22;49949;43.060;25.624;2022-12-07T07:33:01;6.30;99.90
63802;DHT22;49949;43.060;25.624;2022-12-07T07:35:28;6.40;99.90
63802;DHT22;49949;43.060;25.624;2022-12-07T07:37:54;6.50;99.90
63802;DHT22;49949;43.060;25.624;2022-12-07T07:40:20;6.60;99.90
63802;DHT22;49949;43.060;25.624;2022-12-07T07:42:50;6.80;99.90
63802;DHT22;49949;43.060;25.624;2022-12-07T07:45:16;6.90;99.90
63802;DHT22;49949;43.060;25.624;2022-12-07T07:47:42;7.00;99.90
63802;DHT22;49949;43.060;25.624;2022-12-07T07:50:08;7.10;99.90
63802;DHT22;49949;43.060;25.624;2022-12-07T07:52:34;7.30;99.90
63802;DHT22;49949;43.060;25.624;2022-12-07T07:55:00;7.40;99.90
63802;DHT22;49949;43.060;25.624;2022-12-07T07:57:26;7.40;99.90
63802;DHT22;49949;43.060;25.624;2022-12-07T07:59:52;7.50;99.90
63802;DHT22;49949;43.060;25.624;2022-12-07T08:02:19;7.60;99.90
63802;DHT22;49949;43.060;25.624;2022-12-07T08:04:46;7.60;99.90
63802;DHT22;49949;43.060;25.624;2022-12-07T08:07:12;7.60;99.90
63802;DHT22;49949;43.060;25.624;2022-12-07T08:09:38;7.60;99.90
63802;DHT22;49949;43.060;25.624;2022-12-07T08:12:04;7.60;99.90
63802;DHT22;49949;43.060;25.624;2022-12-07T08:14:30;7.60;99.90
63802;DHT22;49949;43.060;25.624;2022-12-07T08:16:56;7.60;99.90
63802;DHT22;49949;43.060;25.624;2022-12-07T08:19:22;7.70;99.90
63802;DHT22;49949;43.060;25.624;2022-12-07T08:21:48;7.80;99.90
63802;DHT22;49949;43.060;25.624;2022-12-07T08:24:13;7.80;99.90
63802;DHT22;49949;43.060;25.624;2022-12-07T08:26:39;7.90;99.90
63802;DHT22;49949;43.060;25.624;2022-12-07T08:29:05;8.00;99.90
63802;DHT22;49949;43.060;25.624;2022-12-07T08:31:31;8.10;99.90
63802;DHT22;49949;43.060;25.624;2022-12-07T08:33:57;8.20;99.90
63802;DHT22;49949;43.060;25.624;2022-12-07T08:36:23;8.20;99.90
63802;DHT22;49949;43.060;25.624;2022-12-07T08:38:49;8.20;99.90
63802;DHT22;49949;43.060;25.624;2022-12-07T08:41:15;8.20;99.90
63802;DHT22;49949;43.060;25.624;2022-12-07T08:43:41;8.20;99.90
63802;DHT22;49949;43.060;25.624;2022-12-07T08:49:14;8.20;99.90
63802;DHT22;49949;43.060;25.624;2022-12-07T08:51:41;8.30;99.90
63802;DHT22;49949;43.060;25.624;2022-12-07T08:54:09;8.40;99.90
63802;DHT22;49949;43.060;25.624;2022-12-07T08:56:35;8.70;99.90
63802;DHT22;49949;43.060;25.624;2022-12-07T08:59:02;9.10;99.90
63802;DHT22;49949;43.060;25.624;2022-12-07T09:01:28;9.50;99.90
63802;DHT22;49949;43.060;25.624;2022-12-07T09:03:54;9.50;99.90
63802;DHT22;49949;43.060;25.624;2022-12-07T09:06:20;9.50;99.90
63802;DHT22;49949;43.060;25.624;2022-12-07T09:08:48;9.70;99.90
63802;DHT22;49949;43.060;25.624;2022-12-07T09:11:15;10.10;99.90
63802;DHT22;49949;43.060;25.624;2022-12-07T09:13:40;10.30;99.90
63802;DHT22;49949;43.060;25.624;2022-12-07T09:16:06;10.10;99.90
63802;DHT22;49949;43.060;25.624;2022-12-07T09:18:32;10.10;99.90
63802;DHT22;49949;43.060;25.624;2022-12-07T09:20:57;10.30;99.90
63802;DHT22;49949;43.060;25.624;2022-12-07T09:23:23;10.90;99.90
63802;DHT22;49949;43.060;25.624;2022-12-07T09:25:49;11.90;99.90
63802;DHT22;49949;43.060;25.624;2022-12-07T09:28:15;12.10;99.90
63802;DHT22;49949;43.060;25.624;2022-12-07T09:30:48;11.90;99.90
63802;DHT22;49949;43.060;25.624;2022-12-07T09:33:14;11.40;99.90
63802;DHT22;49949;43.060;25.624;2022-12-07T09:35:49;11.20;99.90
63802;DHT22;49949;43.060;25.624;2022-12-07T09:38:16;11.00;99.90
63802;DHT22;49949;43.060;25.624;2022-12-07T09:40:42;10.90;99.90
63802;DHT22;49949;43.060;25.624;2022-12-07T09:43:27;10.60;99.90
63802;DHT22;49949;43.060;25.624;2022-12-07T09:45:54;10.30;99.90
63802;DHT22;49949;43.060;25.624;2022-12-07T09:48:35;10.20;99.90
63802;DHT22;49949;43.060;25.624;2022-12-07T09:51:09;10.10;99.90
63802;DHT22;49949;43.060;25.624;2022-12-07T09:53:38;10.10;99.90
63802;DHT22;49949;43.060;25.624;2022-12-07T09:56:04;10.20;99.90
63802;DHT22;49949;43.060;25.624;2022-12-07T09:58:32;10.30;99.90
63802;DHT22;49949;43.060;25.624;2022-12-07T10:03:33;10.50;99.90
63802;DHT22;49949;43.060;25.624;2022-12-07T10:06:00;10.70;99.90
63802;DHT22;49949;43.060;25.624;2022-12-07T10:08:26;10.70;99.90
63802;DHT22;49949;43.060;25.624;2022-12-07T10:10:54;10.90;99.90
63802;DHT22;49949;43.060;25.624;2022-12-07T10:13:40;11.00;99.90
63802;DHT22;49949;43.060;25.624;2022-12-07T10:16:07;11.20;99.90
63802;DHT22;49949;43.060;25.624;2022-12-07T10:18:50;11.30;99.90
63802;DHT22;49949;43.060;25.624;2022-12-07T10:21:25;11.40;99.90
63802;DHT22;49949;43.060;25.624;2022-12-07T10:24:12;11.60;99.90
63802;DHT22;49949;43.060;25.624;2022-12-07T10:29:29;11.60;99.90
63802;DHT22;49949;43.060;25.624;2022-12-07T10:31:56;11.80;99.90
63802;DHT22;49949;43.060;25.624;2022-12-07T10:34:34;12.00;99.90
63802;DHT22;49949;43.060;25.624;2022-12-07T10:37:26;12.10;99.90
63802;DHT22;49949;43.060;25.624;2022-12-07T10:39:57;12.20;99.90
63802;DHT22;49949;43.060;25.624;2022-12-07T10:45:08;12.40;99.90
63802;DHT22;49949;43.060;25.624;2022-12-07T10:47:51;12.40;99.90
63802;DHT22;49949;43.060;25.624;2022-12-07T10:52:58;12.40;99.90
63802;DHT22;49949;43.060;25.624;2022-12-07T11:04:08;12.10;99.90
63802;DHT22;49949;43.060;25.624;2022-12-07T11:09:39;12.10;99.90
63802;DHT22;49949;43.060;25.624;2022-12-07T11:18:06;12.00;99.90
63802;DHT22;49949;43.060;25.624;2022-12-07T11:20:53;11.90;99.90
63802;DHT22;49949;43.060;25.624;2022-12-07T11:26:11;11.90;99.90
63802;DHT22;49949;43.060;25.624;2022-12-07T11:34:29;11.90;99.90
63802;DHT22;49949;43.060;25.624;2022-12-07T11:37:03;11.80;99.90
63802;DHT22;49949;43.060;25.624;2022-12-07T11:39:38;11.90;99.90
63802;DHT22;49949;43.060;25.624;2022-12-07T11:42:19;11.90;99.90
63802;DHT22;49949;43.060;25.624;2022-12-07T11:48:13;12.10;99.90
63802;DHT22;49949;43.060;25.624;2022-12-07T11:50:57;12.20;99.90
63802;DHT22;49949;43.060;25.624;2022-12-07T11:53:46;12.30;99.90
63802;DHT22;49949;43.060;25.624;2022-12-07T11:56:19;12.40;99.90
63802;DHT22;49949;43.060;25.624;2022-12-07T11:58:55;12.30;99.90
63802;DHT22;49949;43.060;25.624;2022-12-07T12:06:29;12.40;99.90
63802;DHT22;49949;43.060;25.624;2022-12-07T12:17:16;12.30;99.90
63802;DHT22;49949;43.060;25.624;2022-12-07T12:22:46;12.30;99.90
63802;DHT22;49949;43.060;25.624;2022-12-07T12:25:25;12.20;99.90
63802;DHT22;49949;43.060;25.624;2022-12-07T12:27:55;12.10;99.90
63802;DHT22;49949;43.060;25.624;2022-12-07T12:30:40;12.10;99.90
63802;DHT22;49949;43.060;25.624;2022-12-07T12:33:19;12.10;99.90
63802;DHT22;49949;43.060;25.624;2022-12-07T12:52:00;12.10;99.90
63802;DHT22;49949;43.060;25.624;2022-12-07T12:54:31;12.20;99.90
63802;DHT22;49949;43.060;25.624;2022-12-07T12:57:08;12.10;99.90
63802;DHT22;49949;43.060;25.624;2022-12-07T12:59:36;12.10;99.90
63802;DHT22;49949;43.060;25.624;2022-12-07T13:05:00;12.00;99.90
63802;DHT22;49949;43.060;25.624;2022-12-07T13:13:08;11.80;99.90
63802;DHT22;49949;43.060;25.624;2022-12-07T13:15:54;11.70;99.90
63802;DHT22;49949;43.060;25.624;2022-12-07T13:29:12;11.50;99.90
63802;DHT22;49949;43.060;25.624;2022-12-07T13:31:39;11.50;99.90
63802;DHT22;49949;43.060;25.624;2022-12-07T13:34:37;11.40;99.90
63802;DHT22;49949;43.060;25.624;2022-12-07T13:39:49;11.20;99.90
63802;DHT22;49949;43.060;25.624;2022-12-07T13:42:35;11.20;99.90
63802;DHT22;49949;43.060;25.624;2022-12-07T13:45:25;11.10;99.90
63802;DHT22;49949;43.060;25.624;2022-12-07T13:48:45;11.00;99.90
63802;DHT22;49949;43.060;25.624;2022-12-07T13:51:23;11.00;99.90
63802;DHT22;49949;43.060;25.624;2022-12-07T13:53:52;10.90;99.90
63802;DHT22;49949;43.060;25.624;2022-12-07T13:56:22;10.80;99.90
63802;DHT22;49949;43.060;25.624;2022-12-07T13:58:48;10.70;99.90
63802;DHT22;49949;43.060;25.624;2022-12-07T14:01:13;10.60;99.90
63802;DHT22;49949;43.060;25.624;2022-12-07T14:03:40;10.60;99.90
63802;DHT22;49949;43.060;25.624;2022-12-07T14:06:33;10.60;99.90
63802;DHT22;49949;43.060;25.624;2022-12-07T14:09:21;10.60;99.90
63802;DHT22;49949;43.060;25.624;2022-12-07T14:11:49;10.50;99.90
63802;DHT22;49949;43.060;25.624;2022-12-07T14:14:21;10.50;99.90
63802;DHT22;49949;43.060;25.624;2022-12-07T14:17:13;10.30;99.90
63802;DHT22;49949;43.060;25.624;2022-12-07T14:27:32;9.80;99.90
63802;DHT22;49949;43.060;25.624;2022-12-07T14:30:00;9.70;99.90
63802;DHT22;49949;43.060;25.624;2022-12-07T14:32:28;9.70;99.90
63802;DHT22;49949;43.060;25.624;2022-12-07T14:35:10;9.60;99.90
63802;DHT22;49949;43.060;25.624;2022-12-07T14:37:36;9.60;99.90
63802;DHT22;49949;43.060;25.624;2022-12-07T14:40:03;9.50;99.90
63802;DHT22;49949;43.060;25.624;2022-12-07T14:42:30;9.40;99.90
63802;DHT22;49949;43.060;25.624;2022-12-07T14:44:57;9.30;99.90
63802;DHT22;49949;43.060;25.624;2022-12-07T14:47:24;9.20;99.90
63802;DHT22;49949;43.060;25.624;2022-12-07T14:49:50;9.10;99.90
63802;DHT22;49949;43.060;25.624;2022-12-07T14:52:19;9.00;99.90
63802;DHT22;49949;43.060;25.624;2022-12-07T14:54:46;8.90;99.90
63802;DHT22;49949;43.060;25.624;2022-12-07T14:57:11;8.80;99.90
63802;DHT22;49949;43.060;25.624;2022-12-07T14:59:37;8.70;99.90
63802;DHT22;49949;43.060;25.624;2022-12-07T15:02:04;8.70;99.90
63802;DHT22;49949;43.060;25.624;2022-12-07T15:04:29;8.50;99.90
63802;DHT22;49949;43.060;25.624;2022-12-07T15:07:06;8.40;99.90
63802;DHT22;49949;43.060;25.624;2022-12-07T15:09:34;8.30;99.90
63802;DHT22;49949;43.060;25.624;2022-12-07T15:12:00;8.10;99.90
63802;DHT22;49949;43.060;25.624;2022-12-07T15:14:25;8.00;99.90
63802;DHT22;49949;43.060;25.624;2022-12-07T15:16:51;7.90;99.90
63802;DHT22;49949;43.060;25.624;2022-12-07T15:19:22;7.80;99.90
63802;DHT22;49949;43.060;25.624;2022-12-07T15:21:49;7.70;99.90
63802;DHT22;49949;43.060;25.624;2022-12-07T15:24:15;7.60;99.90
63802;DHT22;49949;43.060;25.624;2022-12-07T15:26:41;7.40;99.90
63802;DHT22;49949;43.060;25.624;2022-12-07T15:29:08;7.30;99.90
63802;DHT22;49949;43.060;25.624;2022-12-07T15:31:34;7.20;99.90
63802;DHT22;49949;43.060;25.624;2022-12-07T15:34:00;7.20;99.90
63802;DHT22;49949;43.060;25.624;2022-12-07T15:36:28;7.10;99.90
63802;DHT22;49949;43.060;25.624;2022-12-07T15:38:54;7.00;99.90
63802;DHT22;49949;43.060;25.624;2022-12-07T15:41:20;7.00;99.90
63802;DHT22;49949;43.060;25.624;2022-12-07T15:43:46;6.80;99.90
63802;DHT22;49949;43.060;25.624;2022-12-07T15:46:36;6.70;99.90
63802;DHT22;49949;43.060;25.624;2022-12-07T15:49:03;6.70;99.90
63802;DHT22;49949;43.060;25.624;2022-12-07T15:51:30;6.60;99.90
63802;DHT22;49949;43.060;25.624;2022-12-07T15:53:57;6.50;99.90
63802;DHT22;49949;43.060;25.624;2022-12-07T15:56:23;6.40;99.90
63802;DHT22;49949;43.060;25.624;2022-12-07T15:58:49;6.40;99.90
63802;DHT22;49949;43.060;25.624;2022-12-07T16:01:18;6.30;99.90
63802;DHT22;49949;43.060;25.624;2022-12-07T16:03:45;6.20;99.90
63802;DHT22;49949;43.060;25.624;2022-12-07T16:06:11;6.10;99.90
63802;DHT22;49949;43.060;25.624;2022-12-07T16:08:45;6.10;99.90
63802;DHT22;49949;43.060;25.624;2022-12-07T16:11:11;6.00;99.90
63802;DHT22;49949;43.060;25.624;2022-12-07T16:13:37;6.00;99.90
63802;DHT22;49949;43.060;25.624;2022-12-07T16:16:05;5.90;99.90
63802;DHT22;49949;43.060;25.624;2022-12-07T16:18:31;5.90;99.90
63802;DHT22;49949;43.060;25.624;2022-12-07T16:20:56;5.80;99.90
63802;DHT22;49949;43.060;25.624;2022-12-07T16:23:22;5.80;99.90
63802;DHT22;49949;43.060;25.624;2022-12-07T16:25:48;5.70;99.90
63802;DHT22;49949;43.060;25.624;2022-12-07T16:28:13;5.60;99.90
63802;DHT22;49949;43.060;25.624;2022-12-07T16:30:39;5.60;99.90
63802;DHT22;49949;43.060;25.624;2022-12-07T16:33:05;5.60;99.90
63802;DHT22;49949;43.060;25.624;2022-12-07T16:35:31;5.50;99.90
63802;DHT22;49949;43.060;25.624;2022-12-07T16:37:56;5.50;99.90
63802;DHT22;49949;43.060;25.624;2022-12-07T16:40:22;5.40;99.90
63802;DHT22;49949;43.060;25.624;2022-12-07T16:42:48;5.30;99.90
63802;DHT22;49949;43.060;25.624;2022-12-07T16:45:13;5.30;99.90
63802;DHT22;49949;43.060;25.624;2022-12-07T16:47:39;5.20;99.90
63802;DHT22;49949;43.060;25.624;2022-12-07T16:50:06;5.20;99.90
63802;DHT22;49949;43.060;25.624;2022-12-07T16:52:33;5.10;99.90
63802;DHT22;49949;43.060;25.624;2022-12-07T16:54:59;5.10;99.90
63802;DHT22;49949;43.060;25.624;2022-12-07T16:57:25;5.10;99.90
63802;DHT22;49949;43.060;25.624;2022-12-07T16:59:52;5.00;99.90
63802;DHT22;49949;43.060;25.624;2022-12-07T17:02:18;5.00;99.90
63802;DHT22;49949;43.060;25.624;2022-12-07T17:04:44;4.90;99.90
63802;DHT22;49949;43.060;25.624;2022-12-07T17:07:10;4.90;99.90
63802;DHT22;49949;43.060;25.624;2022-12-07T17:09:36;4.80;99.90
63802;DHT22;49949;43.060;25.624;2022-12-07T17:12:02;4.80;99.90
63802;DHT22;49949;43.060;25.624;2022-12-07T17:14:28;4.70;99.90
63802;DHT22;49949;43.060;25.624;2022-12-07T17:17:12;4.70;99.90
63802;DHT22;49949;43.060;25.624;2022-12-07T17:19:38;4.70;99.90
63802;DHT22;49949;43.060;25.624;2022-12-07T17:22:04;4.60;99.90
63802;DHT22;49949;43.060;25.624;2022-12-07T17:24:30;4.60;99.90
63802;DHT22;49949;43.060;25.624;2022-12-07T17:26:56;4.50;99.90
63802;DHT22;49949;43.060;25.624;2022-12-07T17:29:22;4.40;99.90
63802;DHT22;49949;43.060;25.624;2022-12-07T17:31:47;4.40;99.90
63802;DHT22;49949;43.060;25.624;2022-12-07T17:34:15;4.40;99.90
63802;DHT22;49949;43.060;25.624;2022-12-07T17:36:41;4.30;99.90
63802;DHT22;49949;43.060;25.624;2022-12-07T17:39:12;4.30;99.90
63802;DHT22;49949;43.060;25.624;2022-12-07T17:41:39;4.30;99.90
63802;DHT22;49949;43.060;25.624;2022-12-07T17:44:23;4.20;99.90
63802;DHT22;49949;43.060;25.624;2022-12-07T17:46:51;4.20;99.90
63802;DHT22;49949;43.060;25.624;2022-12-07T17:49:22;4.20;99.90
63802;DHT22;49949;43.060;25.624;2022-12-07T17:51:47;4.20;99.90
63802;DHT22;49949;43.060;25.624;2022-12-07T17:54:32;4.20;99.90
63802;DHT22;49949;43.060;25.624;2022-12-07T17:56:57;4.20;99.90
63802;DHT22;49949;43.060;25.624;2022-12-07T17:59:23;4.20;99.90
63802;DHT22;49949;43.060;25.624;2022-12-07T18:01:49;4.10;99.90
63802;DHT22;49949;43.060;25.624;2022-12-07T18:04:15;4.10;99.90